Time;durP1;ratioP1;P1;durP2;ratioP2;P2;SDS_P1;SDS_P2;PMS_P1;PMS_P2;Temp;Humidity;BMP_temperature;BMP_pressure;BME280_temperature;BME280_humidity;BME280_pressure;Samples;Min_cycle;Max_cycle;Signal;HPM_P1;HPM_P2
2021/04/12 00:00:07;;;;;;;5.07;4.15;;;6.20;99.90;;;;;;5015185;28;20309;-47
2021/04/12 00:02:43;;;;;;;7.07;4.70;;;6.30;99.90;;;;;;5033087;28;20033;-47
2021/04/12 00:05:26;;;;;;;;;;;6.20;99.90;;;;;;5033419;28;20499;-43
2021/04/12 00:08:23;;;;;;;6.13;5.40;;;6.30;99.90;;;;;;5033065;28;19999;-45
2021/04/12 00:10:58;;;;;;;6.40;4.38;;;6.30;99.90;;;;;;5032871;28;20029;-43
2021/04/12 00:13:35;;;;;;;5.35;4.95;;;6.20;99.90;;;;;;5032233;28;20055;-43
2021/04/12 00:16:13;;;;;;;6.80;4.80;;;6.20;99.90;;;;;;5032931;28;20296;-49
2021/04/12 00:18:47;;;;;;;6.65;5.15;;;6.30;99.90;;;;;;5030783;28;20030;-42
2021/04/12 00:21:31;;;;;;;5.03;4.55;;;6.20;99.90;;;;;;5032726;28;20104;-42
2021/04/12 00:24:07;;;;;;;7.30;6.05;;;6.20;99.90;;;;;;5030872;28;20025;-45
2021/04/12 00:26:38;;;;;;;5.32;4.88;;;6.20;99.90;;;;;;5032760;28;20029;-48
2021/04/12 00:29:13;;;;;;;6.13;5.53;;;6.20;99.90;;;;;;5032708;28;20032;-48
2021/04/12 00:31:57;;;;;;;6.38;5.78;;;6.30;99.90;;;;;;5032510;28;20021;-48
2021/04/12 00:34:30;;;;;;;6.78;5.35;;;6.40;99.90;;;;;;5031857;28;20026;-45
2021/04/12 00:37:07;;;;;;;6.43;5.40;;;6.30;99.90;;;;;;5032574;28;20037;-44
2021/04/12 00:39:41;;;;;;;8.18;5.22;;;6.30;99.90;;;;;;5032408;28;20021;-45
2021/04/12 00:42:19;;;;;;;5.93;5.32;;;6.20;99.90;;;;;;5032338;28;20026;-43
2021/04/12 00:45:16;;;;;;;6.53;5.35;;;6.20;99.90;;;;;;5031391;28;20029;-42
2021/04/12 00:48:04;;;;;;;8.48;5.85;;;6.20;99.90;;;;;;5031962;28;20494;-43
2021/04/12 00:50:45;;;;;;;6.05;5.45;;;6.10;99.90;;;;;;5031997;28;20025;-49
2021/04/12 00:53:16;;;;;;;6.60;5.90;;;6.20;99.90;;;;;;5032320;28;20029;-46
2021/04/12 00:56:12;;;;;;;7.68;6.18;;;6.20;99.90;;;;;;5031941;28;20108;-48
2021/04/12 00:59:04;;;;;;;6.97;6.28;;;6.20;99.90;;;;;;5029932;28;20426;-47
2021/04/12 01:01:32;;;;;;;8.43;7.57;;;6.20;99.90;;;;;;5031889;28;20026;-45
2021/04/12 01:04:08;;;;;;;8.10;7.35;;;6.20;99.90;;;;;;5013387;28;20091;-47
2021/04/12 01:06:53;;;;;;;10.15;6.88;;;6.20;99.90;;;;;;5031703;28;20033;-46
2021/04/12 01:09:31;;;;;;;7.47;6.78;;;6.20;99.90;;;;;;4990822;28;20036;-45
2021/04/12 01:12:34;;;;;;;8.32;6.90;;;6.20;99.90;;;;;;5031566;28;20083;-44
2021/04/12 01:15:10;;;;;;;10.45;8.18;;;6.20;99.90;;;;;;5031859;28;20781;-46
2021/04/12 01:18:11;;;;;;;8.63;7.35;;;6.20;99.90;;;;;;5031489;28;20071;-45
2021/04/12 01:20:55;;;;;;;8.43;7.63;;;6.10;99.90;;;;;;5013626;28;20557;-47
2021/04/12 01:23:43;;;;;;;10.20;8.38;;;6.20;99.90;;;;;;5012750;28;20036;-43
2021/04/12 01:26:45;;;;;;;8.20;7.32;;;6.20;99.90;;;;;;5031380;28;20021;-47
2021/04/12 01:29:28;;;;;;;7.57;6.80;;;6.20;99.90;;;;;;5031277;28;20025;-46
2021/04/12 01:32:27;;;;;;;11.25;8.02;;;6.20;99.90;;;;;;5031274;28;20036;-46
2021/04/12 01:35:20;;;;;;;8.55;6.72;;;6.20;99.90;;;;;;5031022;28;20033;-45
2021/04/12 01:38:02;;;;;;;11.02;7.75;;;6.20;99.90;;;;;;5031264;28;20025;-45
2021/04/12 01:40:52;;;;;;;7.53;6.82;;;6.20;99.90;;;;;;5031192;28;20029;-44
2021/04/12 01:43:26;;;;;;;10.48;7.35;;;6.20;99.90;;;;;;5030409;28;20033;-46
2021/04/12 01:46:01;;;;;;;9.85;6.78;;;6.20;99.90;;;;;;5029837;28;20022;-48
2021/04/12 01:48:53;;;;;;;9.35;7.38;;;6.20;99.90;;;;;;5030864;28;20021;-50
2021/04/12 01:51:30;;;;;;;7.47;6.40;;;6.20;99.90;;;;;;5020062;28;20116;-44
2021/04/12 01:54:10;;;;;;;7.82;7.00;;;6.10;99.90;;;;;;5012456;28;20116;-44
2021/04/12 01:56:48;;;;;;;8.13;7.03;;;6.20;99.90;;;;;;5030902;28;20033;-47
2021/04/12 01:59:51;;;;;;;10.18;6.30;;;6.20;99.90;;;;;;5030778;28;20099;-44
2021/04/12 02:02:41;;;;;;;6.75;6.15;;;6.10;99.90;;;;;;5030701;28;20022;-44
2021/04/12 02:05:40;;;;;;;8.02;7.22;;;6.20;99.90;;;;;;5030775;28;20053;-46
2021/04/12 02:08:38;;;;;;;13.60;8.38;;;6.20;99.90;;;;;;5030635;28;20032;-48
2021/04/12 02:11:06;;;;;;;9.88;8.88;;;6.20;99.90;;;;;;5030611;28;20151;-48
2021/04/12 02:14:01;;;;;;;11.18;8.40;;;6.30;99.90;;;;;;5012078;28;20036;-51
2021/04/12 02:16:45;;;;;;;9.65;8.23;;;6.20;99.90;;;;;;5030588;28;20026;-45
2021/04/12 02:19:16;;;;;;;9.20;8.10;;;6.20;99.90;;;;;;5029301;28;20053;-44
2021/04/12 02:22:01;;;;;;;11.18;8.57;;;6.20;99.90;;;;;;5030504;28;20079;-47
2021/04/12 02:24:46;;;;;;;11.13;8.20;;;6.20;99.90;;;;;;5030123;28;20080;-44
2021/04/12 02:27:20;;;;;;;10.07;8.60;;;6.20;99.90;;;;;;5030363;28;20033;-45
2021/04/12 02:30:06;;;;;;;10.77;9.20;;;6.10;99.90;;;;;;5030295;28;20322;-46
2021/04/12 02:32:50;;;;;;;14.30;9.70;;;6.20;99.90;;;;;;5030152;28;20116;-49
2021/04/12 02:35:38;;;;;;;9.52;8.50;;;6.10;99.90;;;;;;5030407;28;20030;-47
2021/04/12 02:38:33;;;;;;;11.63;9.00;;;6.20;99.90;;;;;;5030192;28;20025;-49
2021/04/12 02:41:14;;;;;;;12.82;9.80;;;6.20;99.90;;;;;;5012611;28;20038;-43
2021/04/12 02:44:11;;;;;;;12.65;9.13;;;6.20;99.90;;;;;;5029633;28;20022;-44
2021/04/12 02:47:12;;;;;;;12.32;10.45;;;6.20;99.90;;;;;;5030595;28;20434;-43
2021/04/12 02:50:13;;;;;;;11.70;9.98;;;6.20;99.90;;;;;;5016352;28;20376;-46
2021/04/12 02:53:13;;;;;;;12.52;10.02;;;6.20;99.90;;;;;;5033356;28;20185;-47
2021/04/12 02:56:04;;;;;;;13.32;10.20;;;6.10;99.90;;;;;;5034056;28;20096;-48
2021/04/12 02:58:48;;;;;;;11.00;9.90;;;6.20;99.90;;;;;;5033849;28;20025;-45
2021/04/12 03:01:51;;;;;;;15.40;10.70;;;6.30;99.90;;;;;;5034018;28;20487;-47
2021/04/12 03:04:30;;;;;;;12.80;10.13;;;6.20;99.90;;;;;;5033049;28;20045;-48
2021/04/12 03:07:31;;;;;;;12.23;10.40;;;6.10;99.90;;;;;;5033760;28;20025;-45
2021/04/12 03:10:15;;;;;;;13.68;10.52;;;6.10;99.90;;;;;;5033778;28;20025;-44
2021/04/12 03:13:05;;;;;;;12.13;10.70;;;6.10;99.90;;;;;;5033156;28;20434;-44
2021/04/12 03:15:57;;;;;;;12.80;11.02;;;6.10;99.90;;;;;;5033768;28;20514;-47
2021/04/12 03:19:01;;;;;;;12.15;9.98;;;6.00;99.90;;;;;;5033734;28;20109;-45
2021/04/12 03:21:36;;;;;;;13.32;10.82;;;6.00;99.90;;;;;;5033832;28;20025;-45
2021/04/12 03:24:29;;;;;;;12.27;10.38;;;6.00;99.90;;;;;;5032820;28;20022;-49
2021/04/12 03:27:22;;;;;;;15.57;11.10;;;5.90;99.90;;;;;;5033628;28;20495;-43
2021/04/12 03:30:11;;;;;;;14.18;10.85;;;5.90;99.90;;;;;;5033537;28;20025;-43
2021/04/12 03:33:04;;;;;;;10.77;9.48;;;5.90;99.90;;;;;;5032685;28;20025;-47
2021/04/12 03:35:37;;;;;;;14.40;10.95;;;5.90;99.90;;;;;;5033348;28;20026;-44
2021/04/12 03:38:24;;;;;;;11.95;10.77;;;5.90;99.90;;;;;;5033277;28;20083;-43
2021/04/12 03:41:31;;;;;;;16.20;11.63;;;5.90;99.90;;;;;;5033217;28;20092;-44
2021/04/12 03:44:27;;;;;;;14.10;11.35;;;6.00;99.90;;;;;;4993171;28;20384;-46
2021/04/12 03:47:13;;;;;;;19.27;11.85;;;5.90;99.90;;;;;;5031885;28;20030;-44
2021/04/12 03:50:06;;;;;;;12.88;10.65;;;5.90;99.90;;;;;;5033087;28;20040;-43
2021/04/12 03:52:59;;;;;;;15.23;11.80;;;5.90;99.90;;;;;;5032641;28;20025;-48
2021/04/12 03:55:40;;;;;;;12.80;10.65;;;5.90;99.90;;;;;;5033187;28;20113;-46
2021/04/12 03:58:13;;;;;;;17.85;11.30;;;5.80;99.90;;;;;;5032755;28;20108;-48
2021/04/12 04:00:53;;;;;;;14.65;11.52;;;5.80;99.90;;;;;;5032654;28;20080;-50
2021/04/12 04:03:39;;;;;;;13.32;11.10;;;5.80;99.90;;;;;;5032182;28;20402;-48
2021/04/12 04:06:32;;;;;;;15.52;11.38;;;5.80;99.90;;;;;;5036310;28;20025;-50
2021/04/12 04:09:41;;;;;;;15.18;10.95;;;5.80;99.90;;;;;;5037794;28;20474;-46
2021/04/12 04:12:29;;;;;;;13.73;10.95;;;5.80;99.90;;;;;;5035750;28;20218;-45
2021/04/12 04:15:07;;;;;;;12.38;10.77;;;5.80;99.90;;;;;;5035459;28;20057;-45
2021/04/12 04:17:41;;;;;;;15.45;11.45;;;5.70;99.90;;;;;;5032757;28;20101;-44
2021/04/12 04:20:31;;;;;;;13.30;10.57;;;5.70;99.90;;;;;;5032500;28;20035;-46
2021/04/12 04:23:21;;;;;;;13.95;10.88;;;5.60;99.90;;;;;;5030281;28;20040;-47
2021/04/12 04:26:02;;;;;;;12.25;10.63;;;5.60;99.90;;;;;;5014741;28;20025;-49
2021/04/12 04:28:50;;;;;;;14.98;9.57;;;5.60;99.90;;;;;;5032485;28;20036;-47
2021/04/12 04:31:37;;;;;;;11.13;9.73;;;5.70;99.90;;;;;;5032537;28;20032;-42
2021/04/12 04:34:22;;;;;;;12.32;9.75;;;5.60;99.90;;;;;;5031629;28;20032;-47
2021/04/12 04:37:07;;;;;;;13.07;9.43;;;5.60;99.90;;;;;;5032376;28;20021;-44
2021/04/12 04:40:06;;;;;;;10.97;9.33;;;5.60;99.90;;;;;;5014571;28;20044;-43
2021/04/12 04:43:13;;;;;;;9.63;8.27;;;5.50;99.90;;;;;;5031847;28;20083;-46
2021/04/12 04:46:03;;;;;;;10.88;8.55;;;5.50;99.90;;;;;;5032399;28;20104;-44
2021/04/12 04:48:53;;;;;;;8.73;7.57;;;5.50;99.90;;;;;;5032040;28;20024;-44
2021/04/12 04:51:30;;;;;;;9.25;8.05;;;5.50;99.90;;;;;;5032098;28;20018;-44
2021/04/12 04:54:14;;;;;;;17.17;8.45;;;5.50;99.90;;;;;;5031389;28;20033;-48
2021/04/12 04:57:02;;;;;;;13.07;7.97;;;5.50;99.90;;;;;;5014142;28;20029;-50
2021/04/12 04:59:59;;;;;;;13.23;8.80;;;5.50;99.90;;;;;;5032066;28;20029;-45
2021/04/12 05:05:29;;;;;;;8.45;6.55;;;5.70;99.90;;;;;;5049401;28;20045;-49
2021/04/12 05:08:21;;;;;;;8.57;6.85;;;5.70;99.90;;;;;;5052032;28;20035;-50
2021/04/12 05:10:56;;;;;;;9.48;6.47;;;5.60;99.90;;;;;;5051178;28;20110;-50
2021/04/12 05:13:40;;;;;;;;;;;5.60;99.90;;;;;;5051498;28;20228;-46
2021/04/12 05:16:33;;;;;;;10.15;6.85;;;5.50;99.90;;;;;;5051771;28;20219;-45
2021/04/12 05:19:02;;;;;;;9.35;7.63;;;5.50;99.90;;;;;;5033746;28;20072;-49
2021/04/12 05:21:49;;;;;;;12.55;6.93;;;5.50;99.90;;;;;;5051931;28;20013;-48
2021/04/12 05:24:50;;;;;;;7.88;6.38;;;5.50;99.90;;;;;;5051301;28;20021;-53
2021/04/12 05:27:38;;;;;;;8.27;7.00;;;5.50;99.90;;;;;;5051899;28;20047;-46
2021/04/12 05:30:22;;;;;;;7.95;6.35;;;5.50;99.90;;;;;;5051651;28;20269;-49
2021/04/12 05:32:56;;;;;;;11.20;6.85;;;5.60;99.90;;;;;;5050691;28;20494;-45
2021/04/12 05:35:44;;;;;;;7.43;6.00;;;5.60;99.90;;;;;;5051146;28;20028;-46
2021/04/12 05:38:13;;;;;;;7.05;6.25;;;5.60;99.90;;;;;;5051473;28;20051;-46
2021/04/12 05:41:15;;;;;;;7.75;6.65;;;5.70;99.90;;;;;;5051324;28;20436;-53
2021/04/12 05:43:53;;;;;;;9.23;6.32;;;5.70;99.90;;;;;;5050523;28;20086;-51
2021/04/12 05:46:54;;;;;;;5.63;5.13;;;5.70;99.90;;;;;;5049718;28;20024;-49
2021/04/12 05:49:41;;;;;;;8.95;5.40;;;5.80;99.90;;;;;;5050676;28;20058;-48
2021/04/12 05:52:26;;;;;;;9.13;5.65;;;5.70;99.90;;;;;;5051138;28;20032;-52
2021/04/12 05:55:35;;;;;;;6.85;6.05;;;5.90;99.90;;;;;;5050589;28;20029;-47
2021/04/12 05:58:30;;;;;;;5.68;4.43;;;6.00;99.90;;;;;;5051165;28;20139;-61
2021/04/12 06:01:20;;;;;;;8.55;5.45;;;6.00;99.30;;;;;;5038432;28;20033;-49
2021/04/12 06:04:18;;;;;;;8.35;4.90;;;6.10;99.50;;;;;;5050060;28;20410;-49
2021/04/12 06:07:08;;;;;;;12.73;5.20;;;6.10;99.60;;;;;;5034074;28;20121;-48
2021/04/12 06:09:58;;;;;;;6.88;4.60;;;6.10;98.60;;;;;;5030795;28;20018;-45
2021/04/12 06:13:01;;;;;;;7.07;4.68;;;6.10;98.50;;;;;;5031009;28;20025;-52
2021/04/12 06:16:00;;;;;;;6.25;4.50;;;6.20;98.50;;;;;;5031003;28;20097;-50
2021/04/12 06:18:50;;;;;;;10.52;4.10;;;6.20;98.50;;;;;;5034936;28;20379;-53
2021/04/12 06:21:18;;;;;;;7.63;4.25;;;6.10;98.20;;;;;;5050633;28;20029;-45
2021/04/12 06:24:12;;;;;;;8.43;4.60;;;6.10;98.10;;;;;;5040294;28;20029;-48
2021/04/12 06:26:57;;;;;;;5.18;4.28;;;6.10;98.10;;;;;;5048660;28;20027;-47
2021/04/12 06:29:30;;;;;;;7.73;4.10;;;6.10;98.20;;;;;;5050775;28;20020;-46
2021/04/12 06:32:29;;;;;;;7.65;4.10;;;6.10;98.20;;;;;;5050320;28;20412;-48
2021/04/12 06:34:54;;;;;;;6.50;4.22;;;6.20;98.20;;;;;;5040972;28;20026;-50
2021/04/12 06:37:55;;;;;;;8.57;4.68;;;6.30;98.10;;;;;;5031491;28;20087;-46
2021/04/12 06:40:53;;;;;;;5.10;4.28;;;6.40;97.70;;;;;;5030666;28;20028;-48
2021/04/12 06:43:38;;;;;;;10.48;5.05;;;6.80;97.60;;;;;;5031705;28;20025;-48
2021/04/12 06:46:27;;;;;;;8.95;4.50;;;7.10;97.10;;;;;;5039542;28;20017;-50
2021/04/12 06:49:13;;;;;;;5.13;3.88;;;7.20;96.70;;;;;;5050310;28;20118;-51
2021/04/12 06:52:20;;;;;;;6.93;5.22;;;7.30;96.00;;;;;;5030792;28;20028;-49
2021/04/12 06:55:19;;;;;;;14.55;6.28;;;7.20;96.00;;;;;;5011783;28;20044;-49
2021/04/12 06:58:10;;;;;;;7.47;4.93;;;7.30;96.00;;;;;;5031982;28;20038;-50
2021/04/12 07:00:47;;;;;;;10.68;5.57;;;7.30;95.50;;;;;;5036106;28;20040;-49
2021/04/12 07:04:04;;;;;;;7.68;4.85;;;7.50;95.90;;;;;;5024836;28;20542;-46
2021/04/12 07:06:44;;;;;;;7.00;4.90;;;7.90;95.30;;;;;;5012547;28;20032;-46
2021/04/12 07:09:48;;;;;;;6.95;5.30;;;8.30;94.40;;;;;;5030034;28;20029;-48
2021/04/12 07:12:45;;;;;;;6.07;4.88;;;8.70;94.00;;;;;;5029870;28;20021;-47
2021/04/12 07:15:30;;;;;;;6.07;5.30;;;9.00;92.80;;;;;;5036055;28;20613;-44
2021/04/12 07:18:44;;;;;;;7.95;4.90;;;9.20;92.50;;;;;;5030106;28;20036;-46
2021/04/12 07:21:39;;;;;;;6.72;5.45;;;9.40;91.90;;;;;;5008589;28;20561;-49
2021/04/12 07:24:30;;;;;;;13.57;6.20;;;9.60;91.20;;;;;;5049246;28;20037;-48
2021/04/12 07:27:21;;;;;;;7.13;5.20;;;10.00;91.30;;;;;;5052438;28;20079;-48
2021/04/12 07:30:13;;;;;;;8.38;5.30;;;10.40;90.40;;;;;;5053572;28;20028;-44
2021/04/12 07:32:48;;;;;;;6.82;4.40;;;10.20;89.90;;;;;;5053366;28;20025;-53
2021/04/12 07:35:26;;;;;;;5.97;5.03;;;9.80;89.70;;;;;;5057540;28;20022;-48
2021/04/12 07:37:51;;;;;;;6.50;5.43;;;9.60;90.70;;;;;;5054841;28;20390;-46
2021/04/12 07:40:44;;;;;;;8.45;5.70;;;9.40;90.60;;;;;;5053662;28;20030;-45
2021/04/12 07:43:29;;;;;;;7.30;5.35;;;9.20;90.90;;;;;;5052689;28;20434;-46
2021/04/12 07:46:28;;;;;;;6.80;4.40;;;8.90;91.00;;;;;;5053828;28;20017;-51
2021/04/12 07:49:20;;;;;;;6.60;5.15;;;8.90;90.70;;;;;;5053196;28;20032;-46
2021/04/12 07:52:07;;;;;;;7.75;5.00;;;9.30;90.70;;;;;;5053634;28;20421;-45
2021/04/12 07:54:47;;;;;;;13.73;5.32;;;9.80;89.20;;;;;;5050451;28;20025;-46
2021/04/12 07:57:16;;;;;;;8.10;4.55;;;10.40;88.80;;;;;;5052885;28;20056;-50
2021/04/12 08:00:33;;;;;;;6.57;3.63;;;11.00;85.50;;;;;;5051636;28;20033;-47
2021/04/12 08:03:33;;;;;;;5.07;3.38;;;11.10;82.60;;;;;;5047625;28;20580;-57
2021/04/12 08:06:43;;;;;;;6.93;3.92;;;11.00;82.40;;;;;;5049551;28;20033;-55
2021/04/12 08:09:36;;;;;;;10.23;4.10;;;10.60;82.60;;;;;;5044037;28;20025;-53
2021/04/12 08:12:44;;;;;;;6.35;3.72;;;10.20;85.20;;;;;;5051990;28;20032;-46
2021/04/12 08:16:00;;;;;;;7.80;3.35;;;10.20;83.60;;;;;;5044142;28;20108;-52
2021/04/12 08:18:45;;;;;;;10.88;3.78;;;9.50;82.50;;;;;;5033149;28;20124;-53
2021/04/12 08:21:25;;;;;;;5.47;3.60;;;9.40;85.50;;;;;;5043857;28;20026;-51
2021/04/12 08:24:26;;;;;;;5.60;3.35;;;10.10;84.20;;;;;;5031148;28;20108;-55
2021/04/12 08:27:00;;;;;;;5.63;2.92;;;10.90;81.10;;;;;;5031268;28;20483;-52
2021/04/12 08:29:29;;;;;;;7.03;3.80;;;11.50;77.90;;;;;;5032180;28;20032;-56
2021/04/12 08:32:32;;;;;;;5.82;3.33;;;11.00;75.70;;;;;;5014187;28;20539;-53
2021/04/12 08:35:08;;;;;;;7.40;3.20;;;10.60;77.40;;;;;;5029723;28;20088;-57
2021/04/12 08:37:56;;;;;;;6.57;3.30;;;10.40;78.50;;;;;;5013324;28;20156;-58
2021/04/12 08:40:31;;;;;;;10.52;4.70;;;9.70;77.90;;;;;;5031541;28;20141;-57
2021/04/12 08:42:56;;;;;;;11.15;7.05;;;9.40;84.30;;;;;;5030695;28;20026;-57
2021/04/12 08:45:51;;;;;;;10.23;6.35;;;9.70;87.10;;;;;;5030357;28;20014;-57
2021/04/12 08:48:27;;;;;;;9.23;5.60;;;9.70;86.00;;;;;;5030864;28;20117;-52
2021/04/12 08:51:14;;;;;;;9.07;6.72;;;9.30;86.10;;;;;;5031132;28;20365;-53
2021/04/12 08:54:41;;;;;;;11.75;7.43;;;8.90;88.00;;;;;;5030384;28;20419;-53
2021/04/12 08:57:48;;;;;;;13.65;7.68;;;8.50;90.50;;;;;;4964985;28;20378;-47
2021/04/12 09:00:19;;;;;;;9.18;7.97;;;8.00;91.80;;;;;;4925552;28;20082;-49
2021/04/12 09:02:59;;;;;;;11.07;7.07;;;7.80;92.30;;;;;;5016275;28;20045;-51
2021/04/12 09:05:46;;;;;;;8.88;7.07;;;7.80;92.20;;;;;;5031000;28;20552;-50
2021/04/12 09:08:43;;;;;;;11.68;7.25;;;7.80;92.50;;;;;;5030962;28;20061;-46
2021/04/12 09:11:15;;;;;;;;;;;8.10;92.10;;;;;;5049944;28;20084;-45
2021/04/12 09:13:57;;;;;;;5.78;4.43;;;8.20;90.70;;;;;;5050612;28;19944;-47
2021/04/12 09:16:47;;;;;;;6.60;5.43;;;9.00;88.00;;;;;;5051064;28;20025;-50
2021/04/12 09:19:33;;;;;;;6.53;5.60;;;10.10;84.70;;;;;;5050507;28;20021;-46
2021/04/12 09:22:17;;;;;;;;;;;10.90;82.50;;;;;;5034729;28;20017;-56
2021/04/12 09:24:48;;;;;;;7.05;4.25;;;10.50;80.90;;;;;;5050024;28;20420;-45
2021/04/12 09:27:33;;;;;;;5.32;3.30;;;10.20;81.90;;;;;;5051461;28;20029;-55
2021/04/12 09:30:28;;;;;;;7.20;3.22;;;10.20;80.90;;;;;;5051631;28;20112;-55
2021/04/12 09:33:36;;;;;;;4.13;2.92;;;10.90;74.70;;;;;;5049799;28;20418;-51
2021/04/12 09:36:07;;;;;;;3.45;2.72;;;11.60;72.10;;;;;;5050499;28;20509;-49
2021/04/12 09:38:50;;;;;;;3.53;2.70;;;12.50;68.40;;;;;;5050911;28;20394;-52
2021/04/12 09:41:43;;;;;;;3.58;2.78;;;13.30;66.70;;;;;;5050715;28;20070;-48
2021/04/12 09:44:14;;;;;;;5.10;3.58;;;14.00;62.20;;;;;;5050219;28;20021;-58
2021/04/12 09:46:52;;;;;;;3.42;2.30;;;14.30;58.80;;;;;;5050345;28;20029;-49
2021/04/12 09:49:34;;;;;;;25.40;3.97;;;14.20;55.90;;;;;;5050292;28;20100;-54
2021/04/12 09:52:18;;;;;;;5.57;3.40;;;13.70;57.60;;;;;;5050681;28;20096;-48
2021/04/12 09:54:58;;;;;;;4.43;2.33;;;13.10;58.60;;;;;;5049056;28;20375;-54
2021/04/12 09:58:04;;;;;;;7.10;3.40;;;12.60;59.30;;;;;;5048881;28;20021;-56
2021/04/12 10:01:10;;;;;;;4.90;3.03;;;11.80;63.50;;;;;;5030290;28;20561;-54
2021/04/12 10:04:13;;;;;;;4.72;2.72;;;10.80;65.90;;;;;;5029092;28;20040;-53
2021/04/12 10:07:00;;;;;;;4.10;2.85;;;10.20;67.60;;;;;;5028786;28;20029;-59
2021/04/12 10:10:01;;;;;;;5.30;3.78;;;9.80;70.00;;;;;;5034478;28;20028;-53
2021/04/12 10:12:53;;;;;;;6.72;2.72;;;9.80;72.00;;;;;;5049980;28;20078;-50
2021/04/12 10:15:21;;;;;;;5.00;2.80;;;9.60;69.70;;;;;;5049769;28;20039;-56
2021/04/12 10:18:07;;;;;;;7.40;2.55;;;10.00;69.70;;;;;;5031548;28;20398;-53
2021/04/12 10:20:50;;;;;;;2.63;2.10;;;10.50;67.00;;;;;;5049912;28;20375;-50
2021/04/12 10:23:25;;;;;;;3.25;2.60;;;10.80;66.50;;;;;;5049225;28;20033;-51
2021/04/12 10:25:57;;;;;;;;;;;11.00;67.10;;;;;;5032238;28;20025;-48
2021/04/12 10:28:48;;;;;;;6.30;3.33;;;10.80;67.00;;;;;;5050295;28;19928;-51
2021/04/12 10:31:34;;;;;;;3.30;3.00;;;10.50;67.70;;;;;;5026056;28;20041;-48
2021/04/12 10:34:34;;;;;;;3.27;2.53;;;10.20;69.80;;;;;;5049621;28;20017;-47
2021/04/12 10:37:22;;;;;;;3.17;2.70;;;10.20;68.30;;;;;;5033124;28;20114;-52
2021/04/12 10:40:04;;;;;;;7.07;3.45;;;10.30;67.00;;;;;;5029238;28;20099;-51
2021/04/12 10:42:36;;;;;;;3.20;2.78;;;10.30;64.60;;;;;;5029422;28;20063;-51
2021/04/12 10:45:25;;;;;;;6.32;2.67;;;10.30;65.30;;;;;;5011969;28;20029;-50
2021/04/12 10:47:59;;;;;;;6.13;2.47;;;10.10;67.40;;;;;;5035300;28;20455;-48
2021/04/12 10:50:31;;;;;;;2.33;2.23;;;10.20;69.40;;;;;;5051257;28;20021;-49
2021/04/12 10:53:01;;;;;;;6.45;2.28;;;10.50;67.20;;;;;;5048994;28;20021;-50
2021/04/12 10:55:39;;;;;;;8.23;2.95;;;10.60;65.80;;;;;;5049211;28;20017;-54
2021/04/12 10:58:30;;;;;;;3.80;1.98;;;10.80;64.60;;;;;;5047135;28;20028;-52
2021/04/12 11:01:08;;;;;;;2.65;2.30;;;10.70;64.50;;;;;;5026972;28;20494;-52
2021/04/12 11:03:46;;;;;;;2.67;2.30;;;10.70;65.20;;;;;;5044032;22;20014;-48
2021/04/12 11:06:30;;;;;;;1.85;1.75;;;10.60;65.50;;;;;;5030421;28;20034;-49
2021/04/12 11:09:11;;;;;;;1.80;1.60;;;10.50;63.20;;;;;;5031538;28;20036;-53
2021/04/12 11:11:59;;;;;;;2.38;1.80;;;10.20;60.60;;;;;;5033015;28;20052;-46
2021/04/12 11:14:32;;;;;;;5.05;1.92;;;10.20;62.70;;;;;;5013119;28;20037;-48
2021/04/12 11:17:17;;;;;;;3.22;2.00;;;10.40;63.20;;;;;;5013479;28;20114;-51
2021/04/12 11:20:16;;;;;;;1.88;1.77;;;10.20;63.00;;;;;;4995261;28;20517;-50
2021/04/12 11:22:55;;;;;;;7.07;2.10;;;10.20;63.70;;;;;;4975641;28;20026;-55
2021/04/12 11:25:36;;;;;;;4.13;2.17;;;10.20;65.00;;;;;;5002598;28;20058;-49
2021/04/12 11:28:26;;;;;;;3.90;2.35;;;10.10;63.40;;;;;;5014172;28;20036;-55
2021/04/12 11:31:03;;;;;;;2.83;2.40;;;9.90;63.70;;;;;;5012330;28;20120;-43
2021/04/12 11:33:46;;;;;;;2.55;2.00;;;9.90;65.50;;;;;;5014306;28;20370;-48
2021/04/12 11:36:40;;;;;;;2.63;1.52;;;9.70;63.90;;;;;;4994040;28;20022;-47
2021/04/12 11:39:14;;;;;;;4.25;1.48;;;9.80;62.60;;;;;;4992202;28;20046;-47
2021/04/12 11:41:59;;;;;;;2.30;1.38;;;9.90;62.50;;;;;;5014024;28;20041;-46
2021/04/12 11:44:32;;;;;;;1.67;1.45;;;9.80;62.40;;;;;;5014146;28;20502;-47
2021/04/12 11:47:24;;;;;;;1.90;1.77;;;9.80;64.20;;;;;;4995822;28;20026;-44
2021/04/12 11:50:00;;;;;;;1.75;1.30;;;10.00;63.80;;;;;;5014365;28;20074;-48
2021/04/12 11:52:51;;;;;;;1.70;1.30;;;10.20;63.00;;;;;;5014229;28;20030;-47
2021/04/12 11:55:49;;;;;;;3.58;1.52;;;10.40;63.00;;;;;;5011951;28;20037;-44
2021/04/12 11:58:33;;;;;;;1.58;1.33;;;10.40;61.50;;;;;;5014008;28;20385;-44
2021/04/12 12:01:07;;;;;;;1.95;1.52;;;10.40;63.70;;;;;;5014496;28;20028;-44
2021/04/12 12:04:12;;;;;;;2.38;1.60;;;10.30;61.60;;;;;;5013008;28;20483;-48
2021/04/12 12:06:50;;;;;;;6.72;1.70;;;10.20;65.10;;;;;;5014319;28;20030;-48
2021/04/12 12:09:38;;;;;;;1.67;1.50;;;10.00;64.20;;;;;;5013565;28;20065;-47
2021/04/12 12:12:11;;;;;;;4.38;1.50;;;9.90;65.40;;;;;;5014359;28;20029;-46
2021/04/12 12:14:40;;;;;;;3.67;1.35;;;9.90;63.70;;;;;;4997513;28;20386;-46
2021/04/12 12:17:16;;;;;;;2.00;1.70;;;10.00;64.30;;;;;;5015721;28;20029;-46
2021/04/12 12:19:53;;;;;;;2.70;1.50;;;9.80;64.70;;;;;;4996957;28;20033;-44
2021/04/12 12:22:27;;;;;;;2.20;1.83;;;9.80;65.70;;;;;;4997487;28;20022;-45
2021/04/12 12:25:08;;;;;;;1.88;1.70;;;10.00;66.70;;;;;;4995818;28;20018;-44
2021/04/12 12:27:41;;;;;;;1.50;1.50;;;9.90;63.70;;;;;;4994902;28;20492;-46
2021/04/12 12:30:14;;;;;;;1.40;1.17;;;9.90;65.80;;;;;;4996052;28;20033;-45
2021/04/12 12:33:03;;;;;;;1.95;1.25;;;9.90;65.80;;;;;;5013084;28;20026;-45
2021/04/12 12:36:06;;;;;;;2.08;1.13;;;9.90;66.00;;;;;;5015021;28;20030;-46
2021/04/12 12:38:43;;;;;;;1.42;1.38;;;10.10;67.30;;;;;;4971372;28;20041;-46
2021/04/12 12:41:21;;;;;;;1.80;1.70;;;10.20;66.00;;;;;;5013134;28;20064;-45
2021/04/12 12:43:50;;;;;;;3.38;1.70;;;10.20;64.60;;;;;;5012184;28;20022;-45
2021/04/12 12:46:27;;;;;;;2.53;1.40;;;10.20;63.70;;;;;;5013341;28;20022;-44
2021/04/12 12:49:18;;;;;;;2.33;1.52;;;10.10;62.60;;;;;;5012835;28;20116;-46
2021/04/12 12:51:57;;;;;;;2.03;1.83;;;9.90;63.60;;;;;;5012940;28;20030;-44
2021/04/12 12:54:39;;;;;;;1.60;1.50;;;9.80;63.60;;;;;;5012321;28;20108;-46
2021/04/12 12:57:16;;;;;;;1.60;1.50;;;9.80;63.20;;;;;;5013019;28;20057;-49
2021/04/12 12:59:51;;;;;;;2.72;2.13;;;9.70;64.00;;;;;;5012433;28;20487;-44
2021/04/12 13:02:26;;;;;;;1.90;1.63;;;9.60;64.30;;;;;;5012806;28;20554;-44
2021/04/12 13:05:18;;;;;;;4.97;1.95;;;9.60;64.20;;;;;;5011360;28;20073;-46
2021/04/12 13:07:44;;;;;;;2.33;1.75;;;9.50;64.90;;;;;;5012842;28;20025;-47
2021/04/12 13:10:25;;;;;;;3.65;1.55;;;9.60;66.00;;;;;;4995523;28;20065;-45
2021/04/12 13:12:53;;;;;;;2.08;1.80;;;9.50;67.70;;;;;;5012180;28;20056;-44
2021/04/12 13:15:35;;;;;;;3.28;1.88;;;9.60;70.30;;;;;;5012409;28;20037;-43
2021/04/12 13:18:29;;;;;;;5.68;2.28;;;9.40;73.40;;;;;;4994529;28;20035;-44
2021/04/12 13:21:06;;;;;;;1.58;1.48;;;9.20;75.50;;;;;;5012515;28;20148;-44
2021/04/12 13:23:44;;;;;;;1.83;1.67;;;9.10;77.00;;;;;;5011674;28;20093;-44
2021/04/12 13:26:33;;;;;;;2.70;1.70;;;9.00;79.00;;;;;;5012404;28;20471;-45
2021/04/12 13:29:10;;;;;;;1.88;1.33;;;9.00;79.20;;;;;;5011714;28;20041;-45
2021/04/12 13:31:44;;;;;;;1.80;1.70;;;9.00;77.70;;;;;;5000923;28;20029;-45
2021/04/12 13:34:18;;;;;;;6.25;2.75;;;9.00;79.20;;;;;;4994327;28;20040;-44
2021/04/12 13:36:51;;;;;;;2.90;1.90;;;9.00;77.50;;;;;;5012675;28;20100;-51
2021/04/12 13:39:29;;;;;;;2.67;2.15;;;9.00;75.50;;;;;;5012206;28;20076;-51
2021/04/12 13:41:56;;;;;;;2.50;1.63;;;8.80;77.20;;;;;;5012276;28;20022;-48
2021/04/12 13:44:24;;;;;;;2.05;1.92;;;8.80;78.40;;;;;;5009031;28;20091;-55
2021/04/12 13:47:04;;;;;;;3.30;1.80;;;8.80;81.10;;;;;;5011443;28;20058;-58
2021/04/12 13:50:02;;;;;;;2.13;2.03;;;8.80;81.20;;;;;;4993541;28;20052;-48
2021/04/12 13:52:30;;;;;;;3.40;1.90;;;8.90;80.90;;;;;;5006843;28;20044;-58
2021/04/12 13:55:06;;;;;;;2.25;1.60;;;9.10;81.30;;;;;;5010394;28;20025;-49
2021/04/12 13:57:32;;;;;;;3.60;2.00;;;9.20;80.00;;;;;;5011060;28;20029;-53
2021/04/12 14:00:08;;;;;;;2.08;1.50;;;9.30;77.10;;;;;;5011059;28;20140;-51
2021/04/12 14:02:47;;;;;;;2.30;2.20;;;9.30;76.60;;;;;;5010661;28;20544;-48
2021/04/12 14:05:20;;;;;;;1.77;1.67;;;9.40;76.30;;;;;;5011151;28;20026;-51
2021/04/12 14:07:50;;;;;;;1.73;1.63;;;9.40;74.90;;;;;;5011278;28;20033;-47
2021/04/12 14:10:36;;;;;;;4.00;1.92;;;9.40;74.40;;;;;;4992527;28;20022;-49
2021/04/12 14:13:17;;;;;;;1.33;1.20;;;9.60;75.60;;;;;;5010385;28;20052;-53
2021/04/12 14:15:58;;;;;;;1.42;1.30;;;9.60;75.00;;;;;;5011390;28;20030;-49
2021/04/12 14:18:38;;;;;;;2.40;2.05;;;9.50;76.30;;;;;;5010956;28;20484;-48
2021/04/12 14:21:27;;;;;;;2.55;2.35;;;9.20;78.80;;;;;;5011419;28;20025;-51
2021/04/12 14:23:55;;;;;;;1.80;1.70;;;9.10;82.30;;;;;;5010085;28;20113;-50
2021/04/12 14:26:51;;;;;;;2.88;2.30;;;8.70;90.30;;;;;;4993840;28;20425;-51
2021/04/12 14:29:36;;;;;;;2.85;2.47;;;8.40;92.70;;;;;;5011152;28;20033;-50